Time;durP1;ratioP1;P1;durP2;ratioP2;P2;SDS_P1;SDS_P2;PMS_P1;PMS_P2;Temp;Humidity;BMP_temperature;BMP_pressure;BME280_temperature;BME280_humidity;BME280_pressure;Samples;Min_cycle;Max_cycle;Signal;HPM_P1;HPM_P2
2023/07/03 00:00:19;;;;;;;15.52;3.33;;;;;;;14.52;72.65;100856.38;4996429;28;20050;-88
2023/07/03 00:02:49;;;;;;;11.80;2.97;;;;;;;14.53;73.25;100853.41;4995558;28;20042;-89
2023/07/03 00:05:16;;;;;;;14.52;2.70;;;;;;;14.56;73.02;100852.94;4979479;28;20019;-89
2023/07/03 00:07:41;;;;;;;14.32;3.33;;;;;;;14.54;73.18;100855.09;4996879;28;20038;-89
2023/07/03 00:10:08;;;;;;;13.23;3.37;;;;;;;14.58;73.47;100858.16;4978779;28;20391;-88
2023/07/03 00:12:37;;;;;;;15.18;3.13;;;;;;;14.58;72.84;100855.41;4978625;28;20478;-88
2023/07/03 00:15:03;;;;;;;12.77;2.80;;;;;;;14.59;73.31;100859.00;4996529;28;20027;-89
2023/07/03 00:17:28;;;;;;;11.70;3.47;;;;;;;14.57;73.44;100846.41;4978897;28;20045;-89
2023/07/03 00:19:56;;;;;;;18.30;3.47;;;;;;;14.53;73.68;100850.69;4996361;28;20458;-89
2023/07/03 00:22:22;;;;;;;13.90;3.40;;;;;;;14.56;73.79;100857.56;4978853;28;20470;-89
2023/07/03 00:24:47;;;;;;;21.90;3.95;;;;;;;14.54;73.83;100844.16;4978526;28;20125;-89
2023/07/03 00:27:13;;;;;;;13.40;2.90;;;;;;;14.51;74.17;100852.84;4995950;28;20038;-88
2023/07/03 00:29:38;;;;;;;22.37;3.77;;;;;;;14.52;74.72;100845.47;4979325;28;20030;-89
2023/07/03 00:32:06;;;;;;;18.40;3.95;;;;;;;14.52;74.85;100850.94;4978978;28;20040;-89
2023/07/03 00:34:31;;;;;;;17.07;3.30;;;;;;;14.50;74.97;100834.78;4994861;28;20038;-88
2023/07/03 00:37:00;;;;;;;12.52;3.08;;;;;;;14.53;75.48;100849.88;4994360;28;20462;-88
2023/07/03 00:39:28;;;;;;;19.35;4.03;;;;;;;14.51;75.05;100838.34;4995835;28;20109;-88
2023/07/03 00:41:58;;;;;;;16.13;3.55;;;;;;;14.52;75.26;100846.28;4978778;28;20042;-88
2023/07/03 00:44:24;;;;;;;17.00;3.63;;;;;;;14.47;75.42;100846.19;4995577;28;20038;-88
2023/07/03 00:46:52;;;;;;;20.38;3.40;;;;;;;14.49;75.21;100845.97;4978288;28;20104;-88
2023/07/03 00:49:20;;;;;;;15.75;3.38;;;;;;;14.46;75.75;100841.81;4978091;28;20034;-88
2023/07/03 00:52:05;;;;;;;13.68;3.78;;;;;;;14.50;75.69;100844.91;4978021;28;20217;-88
2023/07/03 00:54:30;;;;;;;16.03;2.90;;;;;;;14.44;76.08;100838.50;4978614;28;20039;-88
2023/07/03 00:56:56;;;;;;;19.65;3.78;;;;;;;14.43;76.35;100844.19;4995399;28;20496;-88
2023/07/03 00:59:22;;;;;;;19.10;3.47;;;;;;;14.38;76.96;100832.09;4995350;28;20032;-88
2023/07/03 01:01:57;;;;;;;17.55;3.10;;;;;;;14.43;76.77;100838.75;4993764;28;20513;-88
2023/07/03 01:04:36;;;;;;;18.75;3.30;;;;;;;14.38;77.21;100837.56;4977850;28;20049;-88
2023/07/03 01:07:10;;;;;;;18.73;3.33;;;;;;;14.38;77.37;100834.00;4977647;28;20042;-88
2023/07/03 01:09:48;;;;;;;14.50;3.25;;;;;;;14.37;77.52;100838.63;4978831;28;20045;-87
2023/07/03 01:12:14;;;;;;;19.30;3.55;;;;;;;14.31;78.21;100834.13;4994435;28;20034;-89
2023/07/03 01:14:46;;;;;;;15.98;3.80;;;;;;;14.33;77.83;100831.97;4977947;28;20471;-89
2023/07/03 01:17:13;;;;;;;16.42;3.60;;;;;;;14.31;78.71;100833.31;4993521;28;20513;-89
2023/07/03 01:19:44;;;;;;;21.97;3.93;;;;;;;14.27;78.81;100838.41;4977829;28;20546;-88
2023/07/03 01:22:24;;;;;;;15.43;3.05;;;;;;;14.27;78.83;100846.59;4994908;28;20038;-88
2023/07/03 01:24:54;;;;;;;16.92;3.53;;;;;;;14.21;80.18;100840.19;4993921;28;20027;-89
2023/07/03 01:27:23;;;;;;;19.20;3.35;;;;;;;14.19;79.64;100830.59;4994087;28;20069;-88
2023/07/03 01:29:50;;;;;;;22.77;4.00;;;;;;;14.15;80.17;100832.97;4994797;28;20033;-89
2023/07/03 01:32:22;;;;;;;17.57;3.27;;;;;;;14.10;80.86;100843.78;4977879;28;20033;-88
2023/07/03 01:34:53;;;;;;;15.88;3.42;;;;;;;14.11;81.16;100841.88;4977785;28;20026;-88
2023/07/03 01:37:20;;;;;;;19.13;4.05;;;;;;;14.04;81.84;100831.91;4977892;28;20034;-88
2023/07/03 01:39:49;;;;;;;18.95;3.63;;;;;;;14.06;81.82;100836.31;4994932;28;20048;-89
2023/07/03 01:42:21;;;;;;;17.92;3.70;;;;;;;14.01;82.40;100837.84;4994953;28;20030;-88
2023/07/03 01:44:52;;;;;;;15.27;3.60;;;;;;;14.01;82.64;100829.66;4995141;28;20422;-88
2023/07/03 01:47:18;;;;;;;20.13;4.13;;;;;;;13.95;83.19;100833.34;4978320;28;20053;-88
2023/07/03 01:49:44;;;;;;;16.38;2.97;;;;;;;13.94;83.50;100828.97;4977054;28;20109;-88
2023/07/03 01:52:21;;;;;;;24.00;3.80;;;;;;;13.94;83.12;100830.88;4977519;28;20032;-88
2023/07/03 01:55:04;;;;;;;20.00;3.80;;;;;;;13.92;84.21;100836.56;4977196;28;20045;-89
2023/07/03 01:57:52;;;;;;;17.92;2.95;;;;;;;13.89;84.46;100825.28;4994679;28;20042;-89
2023/07/03 02:00:32;;;;;;;18.77;3.20;;;;;;;13.85;84.76;100822.22;4976487;28;20394;-89
2023/07/03 02:03:05;;;;;;;20.73;4.27;;;;;;;13.82;85.03;100822.69;4977985;28;20045;-89
2023/07/03 02:05:38;;;;;;;23.13;3.40;;;;;;;13.82;85.71;100825.41;4993766;28;20034;-89
2023/07/03 02:08:09;;;;;;;15.75;3.60;;;;;;;13.76;86.26;100821.75;4994567;28;20033;-89
2023/07/03 02:10:45;;;;;;;20.58;3.40;;;;;;;13.70;86.79;100817.25;4977296;28;20553;-88
2023/07/03 02:13:11;;;;;;;23.10;3.95;;;;;;;13.66;87.34;100818.78;4993427;28;20034;-88
2023/07/03 02:15:39;;;;;;;27.47;3.60;;;;;;;13.62;87.57;100820.31;4993082;28;20033;-88
2023/07/03 02:18:04;;;;;;;18.70;3.35;;;;;;;13.60;88.28;100820.53;4976882;28;20030;-88
2023/07/03 02:20:38;;;;;;;22.20;4.17;;;;;;;13.52;89.05;100818.16;4993325;28;20037;-89
2023/07/03 02:23:06;;;;;;;29.08;4.60;;;;;;;13.48;89.77;100820.53;4993352;28;20462;-88
2023/07/03 02:25:34;;;;;;;21.27;4.30;;;;;;;13.44;90.13;100822.06;4993107;28;20026;-88
2023/07/03 02:28:03;;;;;;;24.77;4.32;;;;;;;13.43;91.16;100811.41;4980394;28;20044;-89
2023/07/03 02:30:31;;;;;;;19.27;3.90;;;;;;;13.41;91.47;100805.38;4983562;28;20413;-88
2023/07/03 02:32:56;;;;;;;20.70;3.87;;;;;;;13.38;92.17;100808.56;4967172;28;20038;-89
2023/07/03 02:35:24;;;;;;;19.10;3.90;;;;;;;13.35;92.55;100817.22;4982823;28;20108;-89
2023/07/03 02:37:50;;;;;;;18.50;3.73;;;;;;;13.32;93.76;100813.84;4983537;28;20034;-89
2023/07/03 02:40:20;;;;;;;25.40;4.32;;;;;;;13.30;93.57;100802.34;4984016;28;20332;-88
2023/07/03 02:42:53;;;;;;;26.27;4.40;;;;;;;13.26;94.32;100812.06;4984070;28;20042;-89
2023/07/03 02:45:21;;;;;;;26.80;5.70;;;;;;;13.25;94.82;100807.66;4983472;28;20045;-88
2023/07/03 02:47:52;;;;;;;17.33;3.87;;;;;;;13.19;95.44;100813.25;4982888;28;20079;-89
2023/07/03 02:50:17;;;;;;;24.67;4.32;;;;;;;13.14;96.13;100794.88;4999591;28;20026;-88
2023/07/03 02:52:43;;;;;;;29.13;4.97;;;;;;;13.13;96.40;100806.81;4999285;28;20033;-89
2023/07/03 02:55:08;;;;;;;20.00;4.13;;;;;;;13.08;97.52;100802.09;5000161;28;20030;-89
2023/07/03 02:57:34;;;;;;;24.10;4.67;;;;;;;13.05;98.02;100797.09;4982760;28;20070;-89
2023/07/03 02:59:59;;;;;;;27.23;4.70;;;;;;;12.99;98.54;100798.00;4999010;28;20034;-89
2023/07/03 03:02:28;;;;;;;21.10;4.30;;;;;;;12.96;98.65;100801.19;4999510;28;20297;-89
2023/07/03 03:04:54;;;;;;;26.05;4.22;;;;;;;12.90;99.31;100797.53;4999944;28;20026;-89
2023/07/03 03:07:26;;;;;;;20.60;4.23;;;;;;;12.91;99.58;100809.25;4998991;28;20116;-88
2023/07/03 03:09:54;;;;;;;32.40;4.28;;;;;;;12.87;100.00;100799.88;4983561;28;20368;-88
2023/07/03 03:12:20;;;;;;;25.27;3.97;;;;;;;12.86;100.00;100795.47;4982801;28;20045;-89
2023/07/03 03:14:45;;;;;;;22.03;3.97;;;;;;;12.87;100.00;100806.13;4983203;28;20034;-89
2023/07/03 03:17:14;;;;;;;27.00;4.10;;;;;;;12.87;100.00;100795.25;4998673;28;20046;-88
2023/07/03 03:19:42;;;;;;;17.80;4.40;;;;;;;12.91;100.00;100804.63;4999394;28;20030;-88
2023/07/03 03:22:07;;;;;;;31.02;4.63;;;;;;;12.92;100.00;100794.59;4999345;28;20129;-88
2023/07/03 03:24:43;;;;;;;;;;;;;;;;;;;;;
2023/07/03 03:27:11;;;;;;;26.38;4.50;;;;;;;12.94;100.00;100787.81;5000799;28;20397;-88
2023/07/03 03:29:39;;;;;;;26.65;4.97;;;;;;;12.96;100.00;100785.72;4998524;28;20037;-88
2023/07/03 03:32:06;;;;;;;25.88;4.50;;;;;;;12.92;100.00;100800.03;4981969;28;20434;-88
2023/07/03 03:34:34;;;;;;;31.13;5.70;;;;;;;12.89;100.00;100787.69;4950692;28;20066;-88
2023/07/03 03:37:01;;;;;;;24.48;4.40;;;;;;;12.87;100.00;100797.16;4982622;28;20054;-88
2023/07/03 03:39:29;;;;;;;24.60;4.80;;;;;;;12.81;100.00;100794.31;4980021;28;20034;-88
2023/07/03 03:41:55;;;;;;;18.70;3.95;;;;;;;12.84;100.00;100790.28;4979313;28;20033;-88
2023/07/03 03:44:23;;;;;;;27.10;4.77;;;;;;;12.85;100.00;100789.22;4996337;28;20026;-88
2023/07/03 03:46:51;;;;;;;29.10;5.40;;;;;;;12.85;100.00;100791.13;4996818;28;20061;-88
2023/07/03 03:49:16;;;;;;;28.15;5.07;;;;;;;12.86;100.00;100788.16;4995005;28;20138;-88
2023/07/03 03:51:42;;;;;;;22.90;4.93;;;;;;;12.88;100.00;100787.94;4997506;28;20117;-88
2023/07/03 03:54:10;;;;;;;27.17;5.03;;;;;;;12.92;100.00;100800.84;4996038;28;20073;-88
2023/07/03 03:56:36;;;;;;;26.52;4.72;;;;;;;12.84;100.00;100794.91;4979755;28;20126;-89
2023/07/03 03:59:03;;;;;;;27.42;4.82;;;;;;;12.81;100.00;100799.75;4995539;28;20073;-88
2023/07/03 04:01:34;;;;;;;24.80;4.70;;;;;;;12.79;100.00;100804.59;4994904;28;20057;-87
2023/07/03 04:04:02;;;;;;;33.30;5.47;;;;;;;12.74;100.00;100798.16;4980783;28;20371;-87
2023/07/03 04:06:27;;;;;;;33.88;5.07;;;;;;;12.74;100.00;100798.16;4994956;28;20030;-88
2023/07/03 04:08:53;;;;;;;33.47;5.37;;;;;;;12.77;100.00;100801.28;4978881;28;20027;-88
2023/07/03 04:11:18;;;;;;;25.88;5.05;;;;;;;12.77;100.00;100797.69;4996221;28;20545;-88
2023/07/03 04:13:47;;;;;;;28.20;4.67;;;;;;;12.84;100.00;100794.91;4963061;28;20537;-88
2023/07/03 04:16:13;;;;;;;30.70;5.75;;;;;;;12.86;100.00;100806.38;4992087;28;20030;-88
2023/07/03 04:18:38;;;;;;;34.60;5.00;;;;;;;12.82;100.00;100804.13;4978681;28;20117;-89
2023/07/03 04:21:04;;;;;;;30.27;5.00;;;;;;;12.84;100.00;100800.34;4995159;28;20740;-88
2023/07/03 04:23:32;;;;;;;27.03;4.93;;;;;;;12.91;100.00;100801.09;4978898;28;20041;-89
2023/07/03 04:25:59;;;;;;;36.20;5.68;;;;;;;12.99;100.00;100808.91;4995960;28;20033;-89
2023/07/03 04:28:27;;;;;;;29.60;5.38;;;;;;;13.08;100.00;100803.94;4994591;28;20035;-89
2023/07/03 04:30:53;;;;;;;30.38;5.35;;;;;;;13.12;100.00;100803.28;4994823;28;20184;-88
2023/07/03 04:33:18;;;;;;;26.20;4.73;;;;;;;13.17;100.00;100805.31;4996175;28;20101;-88
2023/07/03 04:35:46;;;;;;;24.80;5.57;;;;;;;13.12;100.00;100803.28;4996427;28;20031;-88
2023/07/03 04:38:17;;;;;;;28.30;5.13;;;;;;;13.15;100.00;100808.25;4978898;28;20046;-88
2023/07/03 04:40:43;;;;;;;26.98;4.60;;;;;;;13.15;100.00;100805.53;4996162;28;20026;-88
2023/07/03 04:43:09;;;;;;;35.15;4.95;;;;;;;13.24;100.00;100811.47;4995723;28;20034;-88
2023/07/03 04:45:56;;;;;;;29.43;5.47;;;;;;;13.34;100.00;100816.38;4962000;28;20045;-89
2023/07/03 04:48:21;;;;;;;22.98;4.95;;;;;;;13.42;100.00;100807.84;4994896;28;20030;-88
2023/07/03 04:50:52;;;;;;;21.83;5.20;;;;;;;13.47;100.00;100807.97;4977147;28;20041;-88
2023/07/03 04:53:20;;;;;;;25.83;4.95;;;;;;;13.54;100.00;100815.19;4994757;28;20072;-88
2023/07/03 04:55:46;;;;;;;28.15;5.55;;;;;;;13.53;100.00;100816.28;4978721;28;20026;-88
2023/07/03 04:58:21;;;;;;;33.08;5.55;;;;;;;13.56;100.00;100821.25;4978065;28;20026;-88
2023/07/03 05:00:49;;;;;;;24.33;4.77;;;;;;;13.57;100.00;100828.34;4994545;28;20425;-89
2023/07/03 05:03:15;;;;;;;24.95;5.20;;;;;;;13.61;100.00;100814.03;4977889;28;20121;-88
2023/07/03 05:05:41;;;;;;;25.38;4.90;;;;;;;13.71;100.00;100824.34;4993836;28;20112;-89
2023/07/03 05:08:06;;;;;;;25.20;5.50;;;;;;;13.76;100.00;100827.19;4993945;28;20030;-88
2023/07/03 05:10:32;;;;;;;21.10;4.25;;;;;;;13.84;100.00;100817.81;4961594;28;20077;-89
2023/07/03 05:12:58;;;;;;;31.10;5.13;;;;;;;13.89;100.00;100837.00;4977639;28;20089;-88
2023/07/03 05:15:38;;;;;;;29.83;5.77;;;;;;;13.97;100.00;100831.22;4994802;28;20030;-88
2023/07/03 05:18:03;;;;;;;27.03;5.87;;;;;;;14.07;100.00;100827.03;4979386;28;20368;-89
2023/07/03 05:20:31;;;;;;;18.23;4.45;;;;;;;14.18;100.00;100828.94;4994886;28;20118;-88
2023/07/03 05:22:57;;;;;;;27.73;5.50;;;;;;;14.31;100.00;100831.41;4978324;28;20069;-84
2023/07/03 05:25:23;;;;;;;25.70;4.30;;;;;;;14.53;99.95;100842.50;4994569;28;20049;-85
2023/07/03 05:27:48;;;;;;;22.38;4.45;;;;;;;14.77;98.70;100839.72;4995043;28;20096;-85
2023/07/03 05:30:14;;;;;;;27.17;4.60;;;;;;;14.97;97.55;100852.94;4977675;28;20034;-85
2023/07/03 05:32:42;;;;;;;22.80;4.70;;;;;;;14.98;96.70;100856.50;4977965;28;20034;-87
2023/07/03 05:35:15;;;;;;;21.47;4.60;;;;;;;14.96;96.39;100836.78;4994532;28;20129;-86
2023/07/03 05:37:41;;;;;;;22.25;4.72;;;;;;;14.95;96.65;100841.41;4994521;28;20061;-87
2023/07/03 05:40:07;;;;;;;24.43;4.53;;;;;;;14.91;96.71;100838.34;4977580;28;20030;-85
2023/07/03 05:42:33;;;;;;;24.70;4.65;;;;;;;14.93;96.89;100842.75;4976955;28;20030;-87
2023/07/03 05:45:01;;;;;;;21.30;4.80;;;;;;;14.96;96.30;100843.06;4976876;28;20023;-86
2023/07/03 05:47:27;;;;;;;27.10;4.93;;;;;;;15.02;95.46;100841.28;4978255;28;20108;-86
2023/07/03 05:49:55;;;;;;;28.90;4.87;;;;;;;14.99;95.31;100853.50;4977045;28;20468;-87
2023/07/03 05:52:33;;;;;;;25.55;5.85;;;;;;;14.97;95.95;100860.28;4994173;28;20034;-87
2023/07/03 05:55:10;;;;;;;23.10;5.10;;;;;;;14.97;95.85;100852.09;4979339;28;20042;-87
2023/07/03 05:57:38;;;;;;;20.30;4.80;;;;;;;14.98;95.45;100851.03;4992634;28;20092;-86
2023/07/03 06:00:13;;;;;;;27.10;5.00;;;;;;;15.00;96.03;100857.06;4976877;28;20026;-88
2023/07/03 06:02:58;;;;;;;26.87;5.27;;;;;;;15.09;95.57;100855.63;4976642;28;20049;-86
2023/07/03 06:05:32;;;;;;;27.20;4.72;;;;;;;15.22;94.94;100855.31;4977829;28;20042;-86
2023/07/03 06:08:05;;;;;;;20.10;4.93;;;;;;;15.33;94.10;100848.09;4994974;28;20108;-86
2023/07/03 06:10:30;;;;;;;22.20;4.60;;;;;;;15.36;93.79;100863.19;4961399;28;20391;-86
2023/07/03 06:13:04;;;;;;;25.43;4.80;;;;;;;15.35;92.93;100858.78;4976680;28;20033;-86
2023/07/03 06:15:34;;;;;;;24.83;4.40;;;;;;;15.34;93.46;100851.66;4961705;28;20085;-86
2023/07/03 06:18:02;;;;;;;25.25;5.10;;;;;;;15.40;92.35;100842.50;4977001;28;20467;-86
2023/07/03 06:20:37;;;;;;;23.58;4.93;;;;;;;15.49;92.37;100851.13;4976242;28;20026;-86
2023/07/03 06:23:03;;;;;;;24.30;5.13;;;;;;;15.53;91.46;100852.25;4977436;28;20088;-86
2023/07/03 06:25:34;;;;;;;24.95;4.70;;;;;;;15.55;91.21;100848.19;4976452;28;20442;-86
2023/07/03 06:28:02;;;;;;;18.35;4.35;;;;;;;15.61;90.38;100877.28;4992758;28;20038;-87
2023/07/03 06:30:33;;;;;;;21.07;4.60;;;;;;;15.66;90.19;100864.78;4976281;28;20034;-89
2023/07/03 06:33:02;;;;;;;24.90;4.55;;;;;;;15.70;89.51;100855.00;4976425;28;20487;-86
2023/07/03 06:35:30;;;;;;;20.88;4.68;;;;;;;15.75;89.37;100855.06;4992438;28;20026;-86
2023/07/03 06:37:58;;;;;;;17.02;3.85;;;;;;;15.81;87.97;100858.75;4992772;28;20030;-86
2023/07/03 06:40:24;;;;;;;23.50;4.20;;;;;;;15.87;88.25;100868.69;4993769;28;20390;-87
2023/07/03 06:42:54;;;;;;;19.63;4.30;;;;;;;15.93;87.57;100856.75;4992970;28;20037;-87
2023/07/03 06:45:25;;;;;;;18.58;3.88;;;;;;;16.02;86.81;100855.25;4993681;28;20034;-87
2023/07/03 06:47:58;;;;;;;16.83;3.83;;;;;;;16.06;85.28;100863.75;4994016;28;20034;-86
2023/07/03 06:50:33;;;;;;;;;;;;;;;;;;;;;
2023/07/03 06:53:32;;;;;;;21.52;3.95;;;;;;;16.19;85.98;100843.41;4994404;28;20026;-87
2023/07/03 06:56:20;;;;;;;18.58;3.95;;;;;;;16.35;85.00;100847.19;4977351;28;20045;-86
2023/07/03 06:58:58;;;;;;;18.30;4.22;;;;;;;16.34;83.87;100849.09;4975492;28;20046;-88
2023/07/03 07:01:28;;;;;;;17.45;4.03;;;;;;;16.37;83.60;100853.22;4975960;28;20046;-87
2023/07/03 07:04:01;;;;;;;25.70;4.77;;;;;;;16.43;83.83;100853.06;4975832;28;20034;-88
2023/07/03 07:06:30;;;;;;;24.40;6.25;;;;;;;16.52;82.34;100866.28;4992674;28;20124;-87
2023/07/03 07:08:59;;;;;;;19.60;4.13;;;;;;;16.54;82.51;100875.91;4976040;28;20026;-88
2023/07/03 07:11:31;;;;;;;20.65;3.70;;;;;;;16.66;81.29;100875.78;4975875;28;20470;-87
2023/07/03 07:14:27;;;;;;;;;;;;;;;;;;;;;
2023/07/03 07:16:55;;;;;;;22.33;3.60;;;;;;;16.74;79.92;100871.75;4984450;28;20485;-87
2023/07/03 07:19:25;;;;;;;23.20;4.63;;;;;;;16.64;79.65;100864.28;4996514;28;20548;-89
2023/07/03 07:21:58;;;;;;;14.88;3.95;;;;;;;16.61;81.06;100865.59;4980120;28;20038;-87
2023/07/03 07:24:24;;;;;;;22.48;4.70;;;;;;;16.68;80.31;100873.59;4981425;28;20034;-87
2023/07/03 07:27:00;;;;;;;22.40;4.17;;;;;;;16.72;79.90;100868.47;4979914;28;20463;-87
2023/07/03 07:29:34;;;;;;;19.45;3.92;;;;;;;16.74;79.11;100877.25;4965246;28;20054;-88
2023/07/03 07:32:09;;;;;;;;;;;;;;;;;;;;;
2023/07/03 07:34:38;;;;;;;17.08;4.60;;;;;;;16.71;79.17;100866.78;4996840;28;20040;-90
2023/07/03 07:37:06;;;;;;;21.15;3.97;;;;;;;16.65;77.89;100861.28;4995744;28;20101;-89
2023/07/03 07:39:43;;;;;;;18.00;3.90;;;;;;;16.66;78.75;100867.56;4996611;28;20027;-89
2023/07/03 07:42:09;;;;;;;23.42;4.20;;;;;;;16.84;76.33;100869.13;4997265;28;20459;-89
2023/07/03 07:44:40;;;;;;;18.75;4.35;;;;;;;17.04;77.07;100876.78;4995234;28;20505;-89
2023/07/03 07:47:06;;;;;;;15.35;2.95;;;;;;;17.28;74.71;100877.31;4995932;28;20061;-88
2023/07/03 07:49:49;;;;;;;;;;;;;;;;;;;;;
2023/07/03 07:52:23;;;;;;;14.57;3.27;;;;;;;17.43;73.04;100893.06;4980403;28;20034;-88
2023/07/03 07:54:56;;;;;;;17.55;3.58;;;;;;;17.45;71.32;100890.91;4978746;28;20046;-88
2023/07/03 07:57:29;;;;;;;14.38;3.45;;;;;;;17.41;70.09;100898.00;4996356;28;20065;-88
2023/07/03 07:59:57;;;;;;;13.38;3.40;;;;;;;17.42;69.49;100882.34;4995390;28;20409;-87
2023/07/03 08:02:23;;;;;;;21.52;3.50;;;;;;;17.65;69.67;100908.63;4978943;28;20042;-87
2023/07/03 08:04:53;;;;;;;17.90;2.73;;;;;;;17.56;67.21;100899.22;4979342;28;20033;-87
2023/07/03 08:07:21;;;;;;;20.13;2.70;;;;;;;17.43;67.97;100904.03;4995689;28;20366;-86
2023/07/03 08:10:10;;;;;;;19.50;3.23;;;;;;;17.43;68.95;100912.28;4979396;28;20085;-87
2023/07/03 08:12:36;;;;;;;16.15;3.03;;;;;;;17.40;68.66;100904.56;4995514;28;20113;-87
2023/07/03 08:15:04;;;;;;;20.90;3.20;;;;;;;17.46;69.54;100906.25;4978600;28;20149;-86
2023/07/03 08:17:30;;;;;;;10.02;2.78;;;;;;;17.58;68.80;100941.75;4979277;28;20038;-86
2023/07/03 08:20:01;;;;;;;15.03;3.40;;;;;;;17.62;68.56;100909.16;4978472;28;20026;-87
2023/07/03 08:22:35;;;;;;;22.35;3.50;;;;;;;17.63;68.42;100911.63;4978654;28;20125;-88
2023/07/03 08:25:03;;;;;;;13.82;2.92;;;;;;;17.65;68.25;100919.59;4994985;28;20077;-87
2023/07/03 08:27:31;;;;;;;10.73;3.20;;;;;;;17.80;67.33;100914.22;4978234;28;20034;-87
2023/07/03 08:30:06;;;;;;;15.75;3.50;;;;;;;17.81;66.44;100909.59;4978531;28;20467;-87
2023/07/03 08:32:35;;;;;;;11.57;3.03;;;;;;;17.91;66.64;100923.41;4994787;28;20048;-87
2023/07/03 08:37:49;;;;;;;18.80;3.92;;;;;;;18.02;65.45;100924.31;4995926;28;20113;-87
2023/07/03 08:40:20;;;;;;;18.38;3.45;;;;;;;18.15;64.86;100917.56;4978505;28;20427;-87
2023/07/03 08:43:07;;;;;;;17.13;3.53;;;;;;;18.14;63.43;100922.19;4995816;28;20070;-87
2023/07/03 08:45:37;;;;;;;14.20;3.37;;;;;;;18.06;63.57;100936.44;4994887;28;20022;-87
2023/07/03 08:48:16;;;;;;;14.27;3.03;;;;;;;18.06;64.44;100918.03;4994515;28;20049;-87
2023/07/03 08:50:47;;;;;;;16.50;3.55;;;;;;;18.37;63.31;100918.22;4977824;28;20045;-87
2023/07/03 08:53:21;;;;;;;15.30;3.97;;;;;;;18.28;62.26;100918.97;4977976;28;20144;-88
2023/07/03 08:56:29;;;;;;;;;;;;;;;;;;;;;
2023/07/03 08:58:58;;;;;;;11.10;3.00;;;;;;;18.10;64.85;100912.84;4994659;28;20068;-87
2023/07/03 09:01:58;;;;;;;16.25;3.25;;;;;;;18.35;64.29;100925.91;4990040;28;20057;-87
2023/07/03 09:04:45;;;;;;;15.90;3.78;;;;;;;18.51;62.68;100940.56;4976891;28;20116;-88
2023/07/03 09:07:47;;;;;;;14.55;3.65;;;;;;;18.60;61.70;100921.63;4974610;28;20037;-87
2023/07/03 09:10:22;;;;;;;15.10;3.60;;;;;;;18.86;59.83;100930.03;4962546;28;20134;-87
2023/07/03 09:12:59;;;;;;;14.97;3.27;;;;;;;18.93;59.32;100914.13;4975355;28;20038;-88
2023/07/03 09:15:41;;;;;;;13.70;3.22;;;;;;;19.04;60.62;100910.28;4974368;28;20062;-87
2023/07/03 09:18:18;;;;;;;13.05;4.07;;;;;;;19.27;59.86;100913.66;4974913;28;20093;-87
2023/07/03 09:20:44;;;;;;;15.48;3.67;;;;;;;19.46;57.91;100906.53;4958972;28;20039;-88
2023/07/03 09:23:46;;;;;;;12.20;3.23;;;;;;;19.50;58.72;100901.28;4958062;28;20475;-87
2023/07/03 09:26:37;;;;;;;14.55;3.42;;;;;;;19.37;57.67;100905.41;4959884;28;20038;-87
2023/07/03 09:29:06;;;;;;;18.75;4.20;;;;;;;19.04;59.17;100903.97;4973031;28;20063;-88
2023/07/03 09:31:36;;;;;;;18.33;4.22;;;;;;;18.94;60.85;100921.25;4974691;28;20491;-88
2023/07/03 09:34:06;;;;;;;17.23;4.50;;;;;;;18.97;61.27;100917.13;4958643;28;20042;-88
2023/07/03 09:36:42;;;;;;;13.93;4.13;;;;;;;19.06;59.55;100921.00;4990378;28;20038;-87
2023/07/03 09:39:14;;;;;;;11.43;3.67;;;;;;;19.25;57.44;100908.44;4974307;28;20451;-87
2023/07/03 09:41:40;;;;;;;14.13;4.10;;;;;;;19.31;56.60;100903.75;4974172;28;20034;-88
2023/07/03 09:44:12;;;;;;;12.23;3.78;;;;;;;19.44;57.62;100908.72;4975341;28;20113;-88
2023/07/03 09:46:39;;;;;;;11.10;3.77;;;;;;;19.65;55.34;100922.50;4991105;28;20117;-88
2023/07/03 09:49:14;;;;;;;14.57;4.38;;;;;;;19.51;55.22;100911.19;4973913;28;20066;-87
2023/07/03 09:51:39;;;;;;;11.75;3.50;;;;;;;19.46;55.67;100913.97;4974613;28;20474;-86
2023/07/03 09:54:34;;;;;;;14.63;3.67;;;;;;;19.39;54.51;100916.97;4990061;28;20035;-87
2023/07/03 09:57:10;;;;;;;14.10;4.43;;;;;;;19.19;54.11;100923.28;4959183;28;20030;-86
2023/07/03 09:59:38;;;;;;;15.77;3.90;;;;;;;19.22;55.11;100924.63;4990237;28;20026;-86
2023/07/03 10:02:08;;;;;;;12.95;4.30;;;;;;;19.65;54.65;100914.25;4990241;28;20113;-87
2023/07/03 10:04:43;;;;;;;13.77;4.05;;;;;;;19.98;51.64;100923.06;4973386;28;20023;-87
2023/07/03 10:07:14;;;;;;;13.27;4.00;;;;;;;20.20;50.94;100914.50;4974803;28;20134;-86
2023/07/03 10:09:46;;;;;;;14.87;4.30;;;;;;;20.39;51.19;100911.97;4973956;28;20109;-87
2023/07/03 10:12:46;;;;;;;;;;;;;;;;;;;;;
2023/07/03 10:15:22;;;;;;;15.70;4.30;;;;;;;20.78;50.04;100927.03;4975417;28;20047;-86
2023/07/03 10:18:04;;;;;;;12.88;3.75;;;;;;;20.88;48.30;100924.22;4989746;28;20101;-85
2023/07/03 10:20:43;;;;;;;12.70;3.38;;;;;;;20.58;48.61;100916.88;4989966;28;20035;-88
2023/07/03 10:23:21;;;;;;;13.80;4.53;;;;;;;20.27;49.04;100930.72;4973341;28;20121;-87
2023/07/03 10:26:17;;;;;;;11.93;3.20;;;;;;;20.16;50.33;100940.94;4989754;28;20122;-87
2023/07/03 10:29:00;;;;;;;12.57;3.45;;;;;;;20.00;48.54;100945.63;4933179;28;20065;-86
2023/07/03 10:31:32;;;;;;;11.82;3.50;;;;;;;19.61;49.90;100933.22;4973094;28;20031;-87
2023/07/03 10:34:11;;;;;;;9.98;3.70;;;;;;;19.72;49.73;100941.50;4973380;28;20035;-86
2023/07/03 10:36:59;;;;;;;12.70;3.33;;;;;;;20.13;49.58;100928.53;4990035;28;20047;-86
2023/07/03 10:39:41;;;;;;;14.60;3.38;;;;;;;20.19;49.72;100931.31;4973637;28;20035;-86
2023/07/03 10:42:20;;;;;;;12.23;3.58;;;;;;;19.92;49.00;100929.69;4974384;28;20033;-86
2023/07/03 10:44:49;;;;;;;13.32;3.28;;;;;;;19.59;49.32;100935.44;4989270;28;20034;-85
2023/07/03 10:47:49;;;;;;;10.20;3.13;;;;;;;19.79;50.16;100942.06;4972782;28;20033;-86
2023/07/03 10:50:18;;;;;;;11.17;3.20;;;;;;;20.16;48.38;100979.50;4977747;28;20035;-85
2023/07/03 10:52:59;;;;;;;18.63;2.90;;;;;;;20.06;48.36;100960.22;4993412;28;20033;-86
2023/07/03 10:55:50;;;;;;;10.35;2.70;;;;;;;20.21;47.65;100943.72;4978059;28;20406;-86
2023/07/03 10:58:15;;;;;;;12.02;3.35;;;;;;;20.48;47.39;100948.88;4977797;28;20042;-85
2023/07/03 11:01:06;;;;;;;8.10;2.60;;;;;;;20.82;45.56;100930.88;4977525;28;20031;-86
2023/07/03 11:03:51;;;;;;;11.82;2.47;;;;;;;21.29;45.33;100946.09;4997439;28;20475;-87
2023/07/03 11:06:48;;;;;;;8.93;2.95;;;;;;;21.91;44.50;100929.09;4997174;28;20023;-86
2023/07/03 11:09:51;;;;;;;18.00;2.90;;;;;;;22.03;43.04;100931.47;4997665;28;20038;-87
2023/07/03 11:12:39;;;;;;;10.68;2.70;;;;;;;22.13;41.57;100923.09;4980460;28;20034;-87
2023/07/03 11:15:32;;;;;;;8.93;2.90;;;;;;;22.11;41.48;100936.34;4996512;28;20169;-86
2023/07/03 11:18:18;;;;;;;12.75;3.00;;;;;;;21.92;42.21;100935.44;4980564;28;20034;-87
2023/07/03 11:21:03;;;;;;;10.85;2.42;;;;;;;21.51;41.27;100955.88;4996372;28;20421;-87
2023/07/03 11:23:38;;;;;;;7.70;2.20;;;;;;;21.01;41.84;100945.69;4997354;28;20113;-86
2023/07/03 11:26:26;;;;;;;9.07;2.60;;;;;;;20.79;42.27;100946.03;4979801;28;20034;-87
2023/07/03 11:29:05;;;;;;;13.48;2.85;;;;;;;20.26;42.88;100971.25;4979603;28;20081;-86
2023/07/03 11:31:37;;;;;;;8.20;2.58;;;;;;;20.47;43.16;100941.69;4979950;28;20030;-87
2023/07/03 11:34:06;;;;;;;11.38;2.65;;;;;;;20.80;42.71;100952.38;4980525;28;20030;-87
2023/07/03 11:36:44;;;;;;;7.77;2.33;;;;;;;20.99;43.26;100939.63;4996580;28;20062;-87
2023/07/03 11:39:22;;;;;;;12.10;2.40;;;;;;;22.81;41.21;100928.69;4995377;28;20085;-87
2023/07/03 11:41:57;;;;;;;9.40;2.30;;;;;;;25.37;36.51;100942.81;4979906;28;20429;-86
2023/07/03 11:44:31;;;;;;;8.40;2.45;;;;;;;24.94;35.73;100932.09;4979737;28;20042;-87
2023/07/03 11:47:06;;;;;;;11.70;2.10;;;;;;;24.41;36.60;100921.50;4995462;28;20053;-88
2023/07/03 11:49:35;;;;;;;7.70;2.40;;;;;;;24.63;34.48;100918.84;4996795;28;20030;-87
2023/07/03 11:52:14;;;;;;;;;;;;;;;;;;;;;